| time (UTC) | temp F | wind direction | speed MPH | gust MPH | rain 1hr in | rain 24hr in | rain mn in | humidity % | barometer mb |
| 20260906185537 | 86 | 225 | 1.0 | 4.0 | 0.00 | 0.00 | 0.00 | 74 | 1014.5 |
| 20260906185017 | 86 | 158 | 2.0 | 6.0 | 0.00 | 0.00 | 0.00 | 75 | 1014.7 |
| 20260906184537 | 86 | 158 | 3.0 | 6.0 | 0.00 | 0.00 | 0.00 | 73 | 1014.6 |
| 20260906184017 | 86 | 158 | 2.0 | 5.0 | 0.00 | 0.00 | 0.00 | 73 | 1014.7 |
| 20260906183517 | 86 | 180 | 2.0 | 6.0 | 0.00 | 0.00 | 0.00 | 73 | 1014.7 |
| 20260906183137 | 86 | 158 | 3.0 | 9.0 | 0.00 | 0.00 | 0.00 | 73 | 1014.7 |
| 20260906182517 | 86 | 158 | 2.0 | 5.0 | 0.00 | 0.00 | 0.00 | 75 | 1014.7 |
| 20260906182017 | 86 | 158 | 1.0 | 6.0 | 0.00 | 0.00 | 0.00 | 73 | 1014.7 |
| 20260906181557 | 85 | 158 | 3.0 | 7.0 | 0.00 | 0.00 | 0.00 | 74 | 1014.8 |
| 20260906181017 | 85 | 158 | 2.0 | 4.0 | 0.00 | 0.00 | 0.00 | 76 | 1014.9 |
| 20260906180517 | 85 | 203 | 3.0 | 6.0 | 0.00 | 0.00 | 0.00 | 77 | 1015.0 |
| 20260906180037 | 84 | 135 | 3.0 | 6.0 | 0.00 | 0.00 | 0.00 | 76 | 1014.9 |
| 20260906175517 | 84 | 180 | 3.0 | 5.0 | 0.00 | 0.00 | 0.00 | 77 | 1015.0 |
| 20260906175017 | 84 | 158 | 3.0 | 6.0 | 0.00 | 0.00 | 0.00 | 78 | 1015.0 |
| 20260906174537 | 84 | 158 | 3.0 | 6.0 | 0.00 | 0.00 | 0.00 | 78 | 1015.0 |
| 20260906174017 | 84 | 158 | 4.0 | 9.0 | 0.00 | 0.00 | 0.00 | 77 | 1015.0 |
| 20260906173517 | 84 | 158 | 5.0 | 9.0 | 0.00 | 0.00 | 0.00 | 77 | 1015.1 |
| 20260906173017 | 84 | 135 | 3.0 | 7.0 | 0.00 | 0.00 | 0.00 | 77 | 1015.1 |
| 20260906172517 | 84 | 158 | 5.0 | 11.0 | 0.00 | 0.00 | 0.00 | 78 | 1015.0 |
| 20260906172017 | 84 | 158 | 6.0 | 10.0 | 0.00 | 0.00 | 0.00 | 78 | 1015.1 |
| 20260906171517 | 84 | 158 | 6.0 | 10.0 | 0.00 | 0.00 | 0.00 | 77 | 1015.2 |
| 20260906171017 | 84 | 158 | 6.0 | 10.0 | 0.00 | 0.00 | 0.00 | 77 | 1015.3 |
| 20260906170537 | 84 | 135 | 3.0 | 8.0 | 0.00 | 0.00 | 0.00 | 80 | 1015.4 |
| 20260906170017 | 83 | 135 | 1.0 | 5.0 | 0.00 | 0.00 | 0.00 | 82 | 1015.4 |
| 20260906165517 | 82 | 135 | 2.0 | 5.0 | 0.00 | 0.00 | 0.00 | 82 | 1015.4 |
| 20260906165037 | 82 | 135 | 1.0 | 4.0 | 0.00 | 0.00 | 0.00 | 84 | 1015.4 |
| 20260906164557 | 81 | 90 | 2.0 | 7.0 | 0.00 | 0.00 | 0.00 | 84 | 1015.3 |
| 20260906164017 | 81 | 158 | 1.0 | 6.0 | 0.00 | 0.00 | 0.00 | 85 | 1015.4 |
| 20260906163517 | 80 | 158 | 1.0 | 4.0 | 0.00 | 0.00 | 0.00 | 86 | 1015.3 |
| 20260906163017 | 80 | 158 | 1.0 | 5.0 | 0.00 | 0.00 | 0.00 | 85 | 1015.4 |
| 20260906162517 | 79 | 0.0 | 1.0 | 0.00 | 0.00 | 0.00 | 86 | 1015.3 | |
| 20260906162017 | 79 | 0.0 | 5.0 | 0.00 | 0.00 | 0.00 | 85 | 1015.5 | |
| 20260906161517 | 78 | 0.0 | 2.0 | 0.00 | 0.00 | 0.00 | 86 | 1015.4 | |
| 20260906161017 | 78 | 0.0 | 2.0 | 0.00 | 0.00 | 0.00 | 86 | 1015.3 | |
| 20260906160517 | 78 | 113 | 1.0 | 5.0 | 0.00 | 0.00 | 0.00 | 87 | 1015.4 |
| 20260906160017 | 78 | 0.0 | 2.0 | 0.00 | 0.00 | 0.00 | 88 | 1015.3 | |
| 20260906155517 | 78 | 0.0 | 2.0 | 0.00 | 0.00 | 0.00 | 88 | 1015.3 | |
| 20260906155017 | 78 | 0.0 | 2.0 | 0.00 | 0.00 | 0.00 | 88 | 1015.5 | |
| 20260906154517 | 78 | 113 | 1.0 | 4.0 | 0.00 | 0.00 | 0.00 | 88 | 1015.3 |
| 20260906154017 | 78 | 113 | 1.0 | 5.0 | 0.00 | 0.00 | 0.00 | 88 | 1015.6 |
| 20260906153517 | 77 | 0.0 | 4.0 | 0.00 | 0.00 | 0.00 | 87 | 1015.5 | |
| 20260906153017 | 77 | 0.0 | 2.0 | 0.00 | 0.00 | 0.00 | 86 | 1015.7 | |
| 20260906152517 | 78 | 180 | 1.0 | 5.0 | 0.00 | 0.00 | 0.00 | 85 | 1015.4 |
| 20260906152017 | 78 | 0.0 | 4.0 | 0.00 | 0.00 | 0.00 | 86 | 1015.4 | |
| 20260906151517 | 78 | 0.0 | 1.0 | 0.00 | 0.00 | 0.00 | 86 | 1015.7 | |
| 20260906151037 | 78 | 0.0 | 1.0 | 0.00 | 0.00 | 0.00 | 86 | 1016.0 | |
| 20260906150517 | 78 | 135 | 2.0 | 6.0 | 0.00 | 0.00 | 0.00 | 86 | 1016.3 |
| 20260906150017 | 79 | 158 | 2.0 | 7.0 | 0.00 | 0.00 | 0.00 | 86 | 1016.0 |
| 20260906145517 | 79 | 0.0 | 1.0 | 0.00 | 0.00 | 0.00 | 86 | 1016.1 | |
| 20260906145017 | 79 | 203 | 1.0 | 4.0 | 0.00 | 0.00 | 0.00 | 85 | 1016.2 |
| 20260906144517 | 79 | 248 | 3.0 | 8.0 | 0.00 | 0.00 | 0.00 | 85 | 1016.2 |
| 20260906144017 | 79 | 158 | 3.0 | 7.0 | 0.00 | 0.00 | 0.00 | 85 | 1016.2 |
| 20260906143517 | 79 | 248 | 6.0 | 13.0 | 0.00 | 0.00 | 0.00 | 84 | 1015.7 |
| 20260906143037 | 80 | 158 | 4.0 | 13.0 | 0.00 | 0.00 | 0.00 | 84 | 1015.9 |
| 20260906142517 | 80 | 158 | 3.0 | 7.0 | 0.00 | 0.00 | 0.00 | 84 | 1015.1 |
| 20260906142017 | 80 | 135 | 3.0 | 7.0 | 0.00 | 0.00 | 0.00 | 84 | 1015.1 |
| 20260906141517 | 79 | 158 | 3.0 | 7.0 | 0.00 | 0.00 | 0.00 | 84 | 1015.1 |
| 20260906141017 | 79 | 135 | 3.0 | 9.0 | 0.00 | 0.00 | 0.00 | 84 | 1015.1 |
| 20260906140517 | 79 | 135 | 3.0 | 8.0 | 0.00 | 0.00 | 0.00 | 84 | 1015.1 |
| 20260906140017 | 79 | 135 | 2.0 | 7.0 | 0.00 | 0.00 | 0.00 | 85 | 1015.1 |
| 20260906135517 | 79 | 135 | 3.0 | 9.0 | 0.00 | 0.00 | 0.00 | 85 | 1015.2 |
| 20260906135037 | 79 | 135 | 2.0 | 7.0 | 0.00 | 0.00 | 0.00 | 85 | 1015.2 |
| 20260906134517 | 79 | 135 | 3.0 | 9.0 | 0.00 | 0.00 | 0.00 | 85 | 1015.1 |
| 20260906134017 | 79 | 135 | 2.0 | 8.0 | 0.00 | 0.00 | 0.00 | 85 | 1015.2 |
| 20260906133537 | 79 | 135 | 2.0 | 8.0 | 0.00 | 0.00 | 0.00 | 85 | 1015.1 |
| 20260906133017 | 79 | 135 | 2.0 | 8.0 | 0.00 | 0.00 | 0.00 | 85 | 1015.2 |
| 20260906132517 | 79 | 135 | 1.0 | 4.0 | 0.00 | 0.00 | 0.00 | 86 | 1015.1 |
| 20260906132017 | 79 | 135 | 1.0 | 5.0 | 0.00 | 0.00 | 0.00 | 85 | 1015.1 |
| 20260906131517 | 79 | 158 | 1.0 | 5.0 | 0.00 | 0.00 | 0.00 | 86 | 1015.2 |
| 20260906131017 | 78 | 113 | 1.0 | 5.0 | 0.00 | 0.00 | 0.00 | 86 | 1015.2 |
| 20260906130517 | 78 | 135 | 1.0 | 6.0 | 0.00 | 0.00 | 0.00 | 86 | 1015.2 |
| 20260906130017 | 78 | 158 | 1.0 | 6.0 | 0.00 | 0.00 | 0.00 | 87 | 1015.1 |
| 20260906125537 | 78 | 135 | 1.0 | 4.0 | 0.00 | 0.00 | 0.00 | 87 | 1015.1 |
| 20260906125017 | 77 | 113 | 1.0 | 4.0 | 0.00 | 0.00 | 0.00 | 88 | 1014.9 |
| 20260906124517 | 77 | 0.0 | 2.0 | 0.00 | 0.00 | 0.00 | 88 | 1015.0 | |
| 20260906124037 | 77 | 0.0 | 2.0 | 0.00 | 0.00 | 0.00 | 89 | 1015.0 | |
| 20260906123517 | 77 | 0.0 | 4.0 | 0.00 | 0.00 | 0.00 | 89 | 1014.8 | |
| 20260906123037 | 76 | 0.0 | 2.0 | 0.00 | 0.00 | 0.00 | 89 | 1014.8 | |
| 20260906122517 | 76 | 0.0 | 2.0 | 0.00 | 0.00 | 0.00 | 89 | 1014.8 | |
| 20260906122037 | 76 | 0.0 | 1.0 | 0.00 | 0.00 | 0.00 | 89 | 1014.8 | |
| 20260906121517 | 76 | 0.0 | 4.0 | 0.00 | 0.00 | 0.00 | 89 | 1014.7 | |
| 20260906121017 | 76 | 0.0 | 1.0 | 0.00 | 0.00 | 0.00 | 89 | 1014.6 | |
| 20260906120517 | 76 | 0.0 | 1.0 | 0.00 | 0.00 | 0.00 | 89 | 1014.5 | |
| 20260906120017 | 76 | 135 | 1.0 | 5.0 | 0.00 | 0.00 | 0.00 | 88 | 1014.5 |
| 20260906115517 | 76 | 0.0 | 1.0 | 0.00 | 0.00 | 0.00 | 88 | 1014.4 | |
| 20260906115017 | 76 | 0.0 | 1.0 | 0.00 | 0.00 | 0.00 | 88 | 1014.4 | |
| 20260906114517 | 76 | 0.0 | 1.0 | 0.00 | 0.00 | 0.00 | 88 | 1014.4 | |
| 20260906114017 | 76 | 0.0 | 1.0 | 0.00 | 0.00 | 0.00 | 88 | 1014.5 | |
| 20260906113537 | 77 | 0.0 | 1.0 | 0.00 | 0.00 | 0.00 | 88 | 1014.5 | |
| 20260906113037 | 77 | 0.0 | 4.0 | 0.00 | 0.00 | 0.00 | 88 | 1014.3 | |
| 20260906112517 | 76 | 0.0 | 4.0 | 0.00 | 0.00 | 0.00 | 88 | 1014.1 | |
| 20260906112017 | 76 | 0.0 | 2.0 | 0.00 | 0.00 | 0.00 | 88 | 1014.1 | |
| 20260906111517 | 76 | 0.0 | 4.0 | 0.00 | 0.00 | 0.00 | 89 | 1014.1 | |
| 20260906111017 | 76 | 0.0 | 1.0 | 0.00 | 0.00 | 0.00 | 88 | 1014.2 | |
| 20260906110537 | 76 | 0.0 | 1.0 | 0.00 | 0.00 | 0.00 | 88 | 1014.2 | |
| 20260906110017 | 76 | 0.0 | 0.0 | 0.00 | 0.00 | 0.00 | 88 | 1014.2 | |
| 20260906105517 | 76 | 0.0 | 0.0 | 0.00 | 0.00 | 0.00 | 88 | 1014.3 | |
| 20260906105017 | 76 | 0.0 | 2.0 | 0.00 | 0.00 | 0.00 | 88 | 1014.4 | |
| 20260906104517 | 76 | 0.0 | 2.0 | 0.00 | 0.00 | 0.00 | 88 | 1014.5 | |
| 20260906104017 | 76 | 0.0 | 2.0 | 0.00 | 0.00 | 0.00 | 88 | 1014.5 | |
| 20260906103517 | 77 | 0.0 | 0.0 | 0.00 | 0.00 | 0.00 | 87 | 1014.4 | |
| 20260906103017 | 77 | 0.0 | 0.0 | 0.00 | 0.00 | 0.00 | 87 | 1014.4 | |
| 20260906102517 | 77 | 0.0 | 0.0 | 0.00 | 0.00 | 0.00 | 87 | 1014.2 | |
| 20260906102017 | 77 | 0.0 | 1.0 | 0.00 | 0.00 | 0.00 | 87 | 1014.2 | |
| 20260906101557 | 77 | 0.0 | 0.0 | 0.00 | 0.00 | 0.00 | 87 | 1014.1 | |
| 20260906101017 | 77 | 0.0 | 0.0 | 0.00 | 0.00 | 0.00 | 87 | 1014.0 | |
| 20260906100517 | 77 | 0.0 | 1.0 | 0.00 | 0.00 | 0.00 | 87 | 1014.1 | |
| 20260906100017 | 77 | 0.0 | 0.0 | 0.00 | 0.00 | 0.00 | 87 | 1014.0 | |
| 20260906095537 | 77 | 0.0 | 0.0 | 0.00 | 0.00 | 0.00 | 86 | 1014.0 | |
| 20260906095017 | 77 | 0.0 | 0.0 | 0.00 | 0.00 | 0.00 | 86 | 1013.9 | |
| 20260906094517 | 77 | 0.0 | 1.0 | 0.00 | 0.00 | 0.00 | 86 | 1014.0 | |
| 20260906094017 | 77 | 0.0 | 0.0 | 0.00 | 0.00 | 0.00 | 86 | 1014.0 | |
| 20260906093517 | 77 | 0.0 | 0.0 | 0.00 | 0.00 | 0.00 | 86 | 1014.0 | |
| 20260906093017 | 77 | 0.0 | 2.0 | 0.00 | 0.00 | 0.00 | 86 | 1014.0 | |
| 20260906092517 | 78 | 0.0 | 0.0 | 0.00 | 0.00 | 0.00 | 86 | 1014.0 | |
| 20260906092017 | 78 | 0.0 | 4.0 | 0.00 | 0.00 | 0.00 | 86 | 1014.0 | |
| 20260906091517 | 78 | 0.0 | 2.0 | 0.00 | 0.00 | 0.00 | 86 | 1014.0 | |
| 20260906091017 | 78 | 0.0 | 1.0 | 0.00 | 0.00 | 0.00 | 86 | 1014.1 | |
| 20260906090517 | 78 | 0.0 | 2.0 | 0.00 | 0.00 | 0.00 | 86 | 1014.0 | |
| 20260906090017 | 78 | 0.0 | 4.0 | 0.00 | 0.00 | 0.00 | 86 | 1014.2 | |
| 20260906085517 | 78 | 0.0 | 1.0 | 0.00 | 0.00 | 0.00 | 85 | 1014.4 | |
| 20260906085017 | 78 | 0.0 | 1.0 | 0.00 | 0.00 | 0.00 | 85 | 1014.4 | |
| 20260906084517 | 78 | 0.0 | 1.0 | 0.00 | 0.00 | 0.00 | 85 | 1014.3 | |
| 20260906084017 | 78 | 0.0 | 0.0 | 0.00 | 0.00 | 0.00 | 85 | 1014.3 | |
| 20260906083517 | 78 | 0.0 | 1.0 | 0.00 | 0.00 | 0.00 | 85 | 1014.1 | |
| 20260906083037 | 78 | 0.0 | 5.0 | 0.00 | 0.00 | 0.00 | 85 | 1014.0 | |
| 20260906082517 | 78 | 0.0 | 2.0 | 0.00 | 0.00 | 0.00 | 84 | 1014.0 | |
| 20260906082017 | 78 | 0.0 | 1.0 | 0.00 | 0.00 | 0.00 | 84 | 1014.0 | |
| 20260906081517 | 79 | 0.0 | 1.0 | 0.00 | 0.00 | 0.00 | 84 | 1014.0 | |
| 20260906081037 | 79 | 0.0 | 4.0 | 0.00 | 0.00 | 0.00 | 84 | 1014.0 | |
| 20260906080517 | 79 | 0.0 | 1.0 | 0.00 | 0.00 | 0.00 | 83 | 1014.0 | |
| 20260906080017 | 79 | 0.0 | 2.0 | 0.00 | 0.00 | 0.00 | 83 | 1013.9 | |
| 20260906075517 | 79 | 0.0 | 2.0 | 0.00 | 0.00 | 0.00 | 83 | 1013.9 | |
| 20260906075017 | 79 | 0.0 | 2.0 | 0.00 | 0.00 | 0.00 | 83 | 1013.9 | |
| 20260906074537 | 80 | 0.0 | 4.0 | 0.00 | 0.00 | 0.00 | 83 | 1013.9 | |
| 20260906074017 | 80 | 135 | 1.0 | 4.0 | 0.00 | 0.00 | 0.00 | 82 | 1013.9 |
| 20260906073537 | 80 | 135 | 1.0 | 5.0 | 0.00 | 0.00 | 0.00 | 82 | 1013.9 |
| 20260906073057 | 80 | 158 | 3.0 | 7.0 | 0.00 | 0.00 | 0.00 | 82 | 1013.9 |
| 20260906072517 | 80 | 158 | 3.0 | 6.0 | 0.00 | 0.00 | 0.00 | 82 | 1013.8 |
| 20260906072037 | 80 | 135 | 2.0 | 7.0 | 0.00 | 0.00 | 0.00 | 82 | 1013.6 |
| 20260906071517 | 80 | 135 | 2.0 | 6.0 | 0.00 | 0.00 | 0.00 | 82 | 1013.6 |
| 20260906071017 | 80 | 158 | 2.0 | 7.0 | 0.00 | 0.00 | 0.00 | 82 | 1013.8 |
| 20260906070537 | 80 | 158 | 1.0 | 4.0 | 0.00 | 0.00 | 0.00 | 82 | 1014.0 |
| 20260906070017 | 80 | 158 | 2.0 | 5.0 | 0.00 | 0.00 | 0.00 | 82 | 1014.0 |
| 20260906065517 | 80 | 158 | 1.0 | 5.0 | 0.00 | 0.00 | 0.00 | 82 | 1014.0 |
| 20260906065017 | 80 | 135 | 1.0 | 5.0 | 0.00 | 0.00 | 0.00 | 82 | 1014.0 |
| 20260906064537 | 80 | 135 | 1.0 | 6.0 | 0.00 | 0.00 | 0.00 | 82 | 1013.9 |
| 20260906064037 | 80 | 0.0 | 2.0 | 0.00 | 0.00 | 0.00 | 82 | 1013.9 | |
| 20260906063517 | 80 | 0.0 | 4.0 | 0.00 | 0.00 | 0.00 | 82 | 1014.0 | |
| 20260906063017 | 80 | 0.0 | 4.0 | 0.00 | 0.00 | 0.00 | 82 | 1014.1 | |
| 20260906062517 | 80 | 0.0 | 4.0 | 0.00 | 0.00 | 0.00 | 82 | 1014.1 | |
| 20260906062017 | 80 | 135 | 1.0 | 4.0 | 0.00 | 0.00 | 0.00 | 82 | 1014.2 |
| 20260906061517 | 80 | 135 | 1.0 | 4.0 | 0.00 | 0.00 | 0.00 | 82 | 1014.2 |
| 20260906061037 | 81 | 0.0 | 2.0 | 0.00 | 0.00 | 0.00 | 81 | 1014.2 | |
| 20260906060517 | 81 | 0.0 | 2.0 | 0.00 | 0.00 | 0.00 | 81 | 1014.2 | |
| 20260906060017 | 81 | 90 | 1.0 | 4.0 | 0.00 | 0.00 | 0.00 | 81 | 1014.3 |
| 20260906055517 | 81 | 0.0 | 2.0 | 0.00 | 0.00 | 0.00 | 80 | 1014.2 | |
| 20260906055017 | 81 | 90 | 1.0 | 6.0 | 0.00 | 0.00 | 0.00 | 80 | 1014.1 |
| 20260906054517 | 81 | 135 | 1.0 | 5.0 | 0.00 | 0.00 | 0.00 | 80 | 1014.2 |
| 20260906054037 | 82 | 113 | 1.0 | 5.0 | 0.00 | 0.00 | 0.00 | 79 | 1014.3 |
| 20260906053517 | 82 | 113 | 1.0 | 5.0 | 0.00 | 0.00 | 0.00 | 79 | 1014.2 |
| 20260906053017 | 82 | 113 | 2.0 | 5.0 | 0.00 | 0.00 | 0.00 | 79 | 1014.2 |
| 20260906052517 | 82 | 90 | 3.0 | 8.0 | 0.00 | 0.00 | 0.00 | 80 | 1014.2 |
| 20260906052017 | 81 | 90 | 2.0 | 6.0 | 0.00 | 0.00 | 0.00 | 80 | 1014.1 |
| 20260906051517 | 81 | 113 | 2.0 | 5.0 | 0.00 | 0.00 | 0.00 | 81 | 1014.0 |
| 20260906051017 | 81 | 113 | 1.0 | 5.0 | 0.00 | 0.00 | 0.00 | 81 | 1014.0 |
| 20260906050517 | 81 | 113 | 2.0 | 6.0 | 0.00 | 0.00 | 0.00 | 81 | 1014.0 |
| 20260906050017 | 81 | 90 | 1.0 | 5.0 | 0.00 | 0.00 | 0.00 | 81 | 1013.8 |
| 20260906045517 | 81 | 113 | 2.0 | 5.0 | 0.00 | 0.00 | 0.00 | 81 | 1014.0 |
| 20260906045037 | 81 | 90 | 3.0 | 6.0 | 0.00 | 0.00 | 0.00 | 81 | 1014.1 |
| 20260906044517 | 81 | 90 | 3.0 | 6.0 | 0.00 | 0.00 | 0.00 | 82 | 1014.0 |
| 20260906044017 | 81 | 113 | 2.0 | 6.0 | 0.00 | 0.00 | 0.00 | 82 | 1013.9 |
| 20260906043517 | 81 | 90 | 2.0 | 5.0 | 0.00 | 0.00 | 0.00 | 81 | 1014.0 |
| 20260906043017 | 81 | 90 | 3.0 | 7.0 | 0.00 | 0.00 | 0.00 | 82 | 1014.1 |
| 20260906042517 | 81 | 90 | 2.0 | 5.0 | 0.00 | 0.00 | 0.00 | 82 | 1014.1 |
| 20260906042017 | 81 | 90 | 2.0 | 5.0 | 0.00 | 0.00 | 0.00 | 82 | 1014.1 |
| 20260906041517 | 81 | 90 | 2.0 | 5.0 | 0.00 | 0.00 | 0.00 | 82 | 1014.1 |
| 20260906041017 | 81 | 90 | 1.0 | 4.0 | 0.00 | 0.00 | 0.00 | 83 | 1014.1 |
| 20260906040517 | 81 | 90 | 2.0 | 5.0 | 0.00 | 0.00 | 0.00 | 83 | 1014.1 |
| 20260906040017 | 81 | 0.0 | 2.0 | 0.00 | 0.00 | 0.00 | 84 | 1014.3 | |
| 20260906035517 | 81 | 0.0 | 1.0 | 0.00 | 0.00 | 0.00 | 84 | 1014.1 | |
| 20260906035017 | 81 | 90 | 1.0 | 3.0 | 0.00 | 0.00 | 0.00 | 84 | 1014.1 |
| 20260906034517 | 81 | 90 | 1.0 | 2.0 | 0.00 | 0.00 | 0.00 | 84 | 1013.9 |
| 20260906034017 | 81 | 90 | 1.0 | 3.0 | 0.00 | 0.00 | 0.00 | 83 | 1013.9 |
| 20260906033517 | 81 | 90 | 1.0 | 5.0 | 0.00 | 0.00 | 0.00 | 83 | 1013.9 |
| 20260906033017 | 82 | 0.0 | 2.0 | 0.00 | 0.00 | 0.00 | 83 | 1013.9 | |
| 20260906032517 | 82 | 0.0 | 5.0 | 0.00 | 0.00 | 0.00 | 83 | 1013.8 | |
| 20260906032017 | 82 | 90 | 1.0 | 5.0 | 0.00 | 0.00 | 0.00 | 83 | 1013.7 |
| 20260906031517 | 81 | 90 | 1.0 | 2.0 | 0.00 | 0.00 | 0.00 | 83 | 1013.7 |
| 20260906031017 | 82 | 90 | 1.0 | 4.0 | 0.00 | 0.00 | 0.00 | 83 | 1013.7 |
| 20260906030517 | 82 | 0.0 | 3.0 | 0.00 | 0.00 | 0.00 | 83 | 1013.7 | |
| 20260906030037 | 82 | 68 | 2.0 | 3.0 | 0.00 | 0.00 | 0.00 | 83 | 1013.7 |
| 20260906025517 | 82 | 68 | 3.0 | 4.0 | 0.00 | 0.00 | 0.00 | 82 | 1013.7 |
| 20260906025017 | 82 | 68 | 3.0 | 5.0 | 0.00 | 0.00 | 0.00 | 82 | 1013.4 |
| 20260906024517 | 82 | 68 | 3.0 | 4.0 | 0.00 | 0.00 | 0.00 | 81 | 1013.3 |
| 20260906024017 | 82 | 68 | 3.0 | 4.0 | 0.00 | 0.00 | 0.00 | 81 | 1013.2 |
| 20260906023517 | 83 | 90 | 3.0 | 6.0 | 0.00 | 0.00 | 0.00 | 81 | 1013.1 |
| 20260906023017 | 83 | 68 | 4.0 | 6.0 | 0.00 | 0.00 | 0.00 | 80 | 1013.1 |
| 20260906022517 | 83 | 68 | 4.0 | 6.0 | 0.00 | 0.00 | 0.00 | 80 | 1013.0 |
| 20260906022017 | 83 | 68 | 4.0 | 5.0 | 0.00 | 0.00 | 0.00 | 79 | 1012.8 |
| 20260906021517 | 83 | 68 | 4.0 | 7.0 | 0.00 | 0.00 | 0.00 | 79 | 1012.7 |
| 20260906021017 | 84 | 68 | 4.0 | 7.0 | 0.00 | 0.00 | 0.00 | 78 | 1012.6 |
| 20260906020537 | 84 | 90 | 4.0 | 7.0 | 0.00 | 0.00 | 0.00 | 78 | 1012.6 |
| 20260906020017 | 84 | 68 | 4.0 | 5.0 | 0.00 | 0.00 | 0.00 | 77 | 1012.6 |
| 20260906015517 | 85 | 90 | 3.0 | 6.0 | 0.00 | 0.00 | 0.00 | 76 | 1012.5 |
| 20260906015017 | 85 | 90 | 4.0 | 6.0 | 0.00 | 0.00 | 0.00 | 76 | 1012.5 |
| 20260906014517 | 85 | 90 | 3.0 | 5.0 | 0.00 | 0.00 | 0.00 | 76 | 1012.3 |
| 20260906014017 | 85 | 90 | 3.0 | 5.0 | 0.00 | 0.00 | 0.00 | 76 | 1012.1 |
| 20260906013537 | 85 | 90 | 3.0 | 5.0 | 0.00 | 0.00 | 0.00 | 76 | 1012.1 |
| 20260906013037 | 85 | 90 | 4.0 | 5.0 | 0.00 | 0.00 | 0.00 | 75 | 1011.9 |
| 20260906012517 | 86 | 90 | 4.0 | 6.0 | 0.00 | 0.00 | 0.00 | 74 | 1011.9 |
| 20260906012017 | 86 | 90 | 3.0 | 5.0 | 0.00 | 0.00 | 0.00 | 74 | 1012.0 |
| 20260906011517 | 86 | 0.0 | 0.0 | 0.00 | 0.00 | 0.00 | 74 | 1012.0 | |
| 20260906011017 | 86 | 0.0 | 0.0 | 0.00 | 0.00 | 0.00 | 74 | 1011.9 | |
| 20260906010537 | 87 | 0.0 | 0.0 | 0.00 | 0.00 | 0.00 | 73 | 1011.9 | |
| 20260906010017 | 87 | 0.0 | 0.0 | 0.00 | 0.00 | 0.00 | 73 | 1011.9 | |
| 20260906005517 | 87 | 0.0 | 0.0 | 0.00 | 0.00 | 0.00 | 72 | 1011.9 | |
| 20260906005037 | 88 | 0.0 | 0.0 | 0.00 | 0.00 | 0.00 | 71 | 1011.9 | |
| 20260906004517 | 88 | 0.0 | 0.0 | 0.00 | 0.00 | 0.00 | 70 | 1011.8 | |
| 20260906004017 | 89 | 0.0 | 1.0 | 0.00 | 0.00 | 0.00 | 69 | 1011.9 | |
| 20260906003517 | 89 | 0.0 | 1.0 | 0.00 | 0.00 | 0.00 | 68 | 1011.8 | |
| 20260906003017 | 89 | 0.0 | 4.0 | 0.00 | 0.00 | 0.00 | 68 | 1011.8 | |
| 20260906002517 | 90 | 90 | 2.0 | 5.0 | 0.00 | 0.00 | 0.00 | 67 | 1011.8 |
| 20260906002037 | 90 | 135 | 2.0 | 5.0 | 0.00 | 0.00 | 0.00 | 67 | 1011.8 |
| 20260906001537 | 90 | 135 | 1.0 | 4.0 | 0.00 | 0.00 | 0.00 | 66 | 1011.8 |
| 20260906001037 | 90 | 135 | 1.0 | 4.0 | 0.00 | 0.00 | 0.00 | 66 | 1011.8 |
| 20260906000517 | 90 | 135 | 2.0 | 7.0 | 0.00 | 0.00 | 0.00 | 65 | 1011.7 |
| 20260906000017 | 90 | 135 | 3.0 | 8.0 | 0.00 | 0.00 | 0.00 | 65 | 1011.6 |
| 20260905235517 | 91 | 135 | 3.0 | 8.0 | 0.00 | 0.00 | 0.00 | 65 | 1011.6 |
| 20260905235017 | 91 | 158 | 2.0 | 6.0 | 0.00 | 0.00 | 0.00 | 64 | 1011.6 |
| 20260905234517 | 91 | 135 | 3.0 | 7.0 | 0.00 | 0.00 | 0.00 | 63 | 1011.5 |
| 20260905234037 | 91 | 135 | 3.0 | 8.0 | 0.00 | 0.00 | 0.00 | 63 | 1011.5 |
| 20260905233517 | 91 | 135 | 3.0 | 9.0 | 0.00 | 0.00 | 0.00 | 63 | 1011.6 |
| 20260905233017 | 92 | 113 | 3.0 | 9.0 | 0.00 | 0.00 | 0.00 | 62 | 1011.6 |
| 20260905232517 | 92 | 135 | 3.0 | 6.0 | 0.00 | 0.00 | 0.00 | 62 | 1011.6 |
| 20260905232037 | 92 | 135 | 4.0 | 7.0 | 0.00 | 0.00 | 0.00 | 61 | 1011.6 |
| 20260905231517 | 92 | 90 | 3.0 | 9.0 | 0.00 | 0.00 | 0.00 | 62 | 1011.6 |
| 20260905231017 | 92 | 135 | 3.0 | 8.0 | 0.00 | 0.00 | 0.00 | 62 | 1011.7 |
| 20260905230517 | 92 | 135 | 2.0 | 8.0 | 0.00 | 0.00 | 0.00 | 62 | 1011.7 |
| 20260905230015 | 92 | 158 | 3.0 | 8.0 | 0.00 | 0.00 | 0.00 | 60 | 1011.7 |
| 20260905225517 | 92 | 135 | 4.0 | 9.0 | 0.00 | 0.00 | 0.00 | 60 | 1011.8 |
| 20260905225057 | 92 | 135 | 3.0 | 8.0 | 0.00 | 0.00 | 0.00 | 62 | 1011.8 |
| 20260905224517 | 92 | 135 | 3.0 | 9.0 | 0.00 | 0.00 | 0.00 | 61 | 1011.8 |
| 20260905224017 | 92 | 135 | 4.0 | 10.0 | 0.00 | 0.00 | 0.00 | 59 | 1011.8 |
| 20260905223538 | 92 | 135 | 3.0 | 9.0 | 0.00 | 0.00 | 0.00 | 60 | 1011.8 |
| 20260905223017 | 92 | 135 | 4.0 | 8.0 | 0.00 | 0.00 | 0.00 | 60 | 1011.7 |
| 20260905222517 | 92 | 135 | 4.0 | 9.0 | 0.00 | 0.00 | 0.00 | 59 | 1011.6 |
| 20260905222017 | 92 | 158 | 4.0 | 9.0 | 0.00 | 0.00 | 0.00 | 60 | 1011.6 |
| 20260905221517 | 92 | 135 | 5.0 | 11.0 | 0.00 | 0.00 | 0.00 | 59 | 1011.6 |
| 20260905221017 | 92 | 135 | 4.0 | 10.0 | 0.00 | 0.00 | 0.00 | 61 | 1011.5 |
| 20260905220537 | 92 | 158 | 8.0 | 15.0 | 0.00 | 0.00 | 0.00 | 59 | 1011.5 |
| 20260905220037 | 92 | 158 | 5.0 | 10.0 | 0.00 | 0.00 | 0.00 | 60 | 1011.5 |
| 20260905215517 | 92 | 135 | 3.0 | 8.0 | 0.00 | 0.00 | 0.00 | 59 | 1011.5 |
| 20260905215016 | 92 | 158 | 5.0 | 9.0 | 0.00 | 0.00 | 0.00 | 61 | 1011.6 |
| 20260905214517 | 92 | 158 | 5.0 | 12.0 | 0.00 | 0.00 | 0.00 | 59 | 1011.5 |
| 20260905214037 | 92 | 113 | 5.0 | 11.0 | 0.00 | 0.00 | 0.00 | 58 | 1011.5 |
| 20260905213517 | 92 | 135 | 5.0 | 10.0 | 0.00 | 0.00 | 0.00 | 57 | 1011.6 |
| 20260905213037 | 92 | 135 | 5.0 | 9.0 | 0.00 | 0.00 | 0.00 | 56 | 1011.7 |
| 20260905212517 | 92 | 135 | 5.0 | 12.0 | 0.00 | 0.00 | 0.00 | 55 | 1011.8 |
| 20260905212017 | 92 | 158 | 4.0 | 12.0 | 0.00 | 0.00 | 0.00 | 58 | 1011.9 |
| 20260905211517 | 92 | 135 | 4.0 | 11.0 | 0.00 | 0.00 | 0.00 | 57 | 1012.0 |
| 20260905211118 | 92 | 113 | 4.0 | 10.0 | 0.00 | 0.00 | 0.00 | 58 | 1012.1 |
| 20260905210517 | 92 | 135 | 5.0 | 10.0 | 0.00 | 0.00 | 0.00 | 57 | 1012.2 |
| 20260905210037 | 92 | 135 | 4.0 | 11.0 | 0.00 | 0.00 | 0.00 | 57 | 1012.3 |
| 20260905205517 | 92 | 135 | 3.0 | 8.0 | 0.00 | 0.00 | 0.00 | 59 | 1012.3 |
| 20260905205057 | 92 | 113 | 3.0 | 8.0 | 0.00 | 0.00 | 0.00 | 59 | 1012.4 |
| 20260905204517 | 92 | 113 | 5.0 | 10.0 | 0.00 | 0.00 | 0.00 | 59 | 1012.5 |
| 20260905204017 | 91 | 90 | 4.0 | 12.0 | 0.00 | 0.00 | 0.00 | 57 | 1012.5 |
| 20260905203517 | 91 | 113 | 4.0 | 11.0 | 0.00 | 0.00 | 0.00 | 60 | 1012.5 |
| 20260905203017 | 91 | 113 | 5.0 | 13.0 | 0.00 | 0.00 | 0.00 | 60 | 1012.6 |
| 20260905202517 | 90 | 135 | 4.0 | 10.0 | 0.00 | 0.00 | 0.00 | 62 | 1012.7 |
| 20260905202017 | 90 | 90 | 4.0 | 14.0 | 0.00 | 0.00 | 0.00 | 61 | 1013.0 |
| 20260905201517 | 90 | 68 | 6.0 | 14.0 | 0.00 | 0.00 | 0.00 | 61 | 1013.1 |
| 20260905201017 | 90 | 90 | 8.0 | 15.0 | 0.00 | 0.00 | 0.00 | 58 | 1013.2 |
| 20260905200517 | 90 | 90 | 5.0 | 10.0 | 0.00 | 0.00 | 0.00 | 58 | 1013.2 |
| 20260905200017 | 90 | 90 | 7.0 | 14.0 | 0.00 | 0.00 | 0.00 | 58 | 1013.5 |
| 20260905195517 | 90 | 90 | 6.0 | 15.0 | 0.00 | 0.00 | 0.00 | 59 | 1013.7 |
| 20260905195017 | 90 | 68 | 7.0 | 13.0 | 0.00 | 0.00 | 0.00 | 59 | 1013.9 |
| 20260905194517 | 90 | 90 | 5.0 | 13.0 | 0.00 | 0.00 | 0.00 | 60 | 1014.0 |
| 20260905194017 | 89 | 113 | 6.0 | 13.0 | 0.00 | 0.00 | 0.00 | 62 | 1014.1 |
| 20260905193516 | 89 | 113 | 5.0 | 12.0 | 0.00 | 0.00 | 0.00 | 64 | 1014.1 |
| 20260905193018 | 89 | 113 | 5.0 | 12.0 | 0.00 | 0.00 | 0.00 | 65 | 1014.2 |
| 20260905192517 | 89 | 68 | 9.0 | 17.0 | 0.00 | 0.00 | 0.00 | 63 | 1014.3 |
| 20260905192017 | 89 | 68 | 9.0 | 17.0 | 0.00 | 0.00 | 0.00 | 63 | 1014.4 |
| 20260905191517 | 89 | 68 | 7.0 | 15.0 | 0.00 | 0.00 | 0.00 | 63 | 1014.4 |
| 20260905191017 | 89 | 113 | 7.0 | 19.0 | 0.00 | 0.00 | 0.00 | 62 | 1014.4 |
| 20260905190517 | 89 | 68 | 11.0 | 19.0 | 0.00 | 0.00 | 0.00 | 64 | 1014.4 |
| 20260905190017 | 89 | 68 | 9.0 | 18.0 | 0.00 | 0.00 | 0.00 | 66 | 1014.4 |